sensor_id;sensor_type;location;lat;lon;timestamp;temperature;humidity
5743;DHT22;2896;53.500;10.020;2022-08-03T00:00:53;20.30;99.90
5743;DHT22;2896;53.500;10.020;2022-08-03T00:03:19;20.20;99.90
5743;DHT22;2896;53.500;10.020;2022-08-03T00:05:46;20.20;99.90
5743;DHT22;2896;53.500;10.020;2022-08-03T00:08:14;20.10;99.90
5743;DHT22;2896;53.500;10.020;2022-08-03T00:10:41;20.00;99.90
5743;DHT22;2896;53.500;10.020;2022-08-03T00:13:07;19.90;99.90
5743;DHT22;2896;53.500;10.020;2022-08-03T00:15:37;22.20;99.90
5743;DHT22;2896;53.500;10.020;2022-08-03T00:18:04;19.80;99.90
5743;DHT22;2896;53.500;10.020;2022-08-03T00:20:31;19.80;99.90
5743;DHT22;2896;53.500;10.020;2022-08-03T00:22:57;19.70;99.90
5743;DHT22;2896;53.500;10.020;2022-08-03T00:25:25;19.60;99.90
5743;DHT22;2896;53.500;10.020;2022-08-03T00:27:52;19.60;99.90
5743;DHT22;2896;53.500;10.020;2022-08-03T00:30:19;19.60;99.90
5743;DHT22;2896;53.500;10.020;2022-08-03T00:32:45;19.50;99.90
5743;DHT22;2896;53.500;10.020;2022-08-03T00:35:12;19.50;99.90
5743;DHT22;2896;53.500;10.020;2022-08-03T00:37:38;19.40;99.90
5743;DHT22;2896;53.500;10.020;2022-08-03T00:40:06;19.30;99.90
5743;DHT22;2896;53.500;10.020;2022-08-03T00:42:34;19.30;99.90
5743;DHT22;2896;53.500;10.020;2022-08-03T00:45:11;19.30;99.90
5743;DHT22;2896;53.500;10.020;2022-08-03T00:47:37;19.20;99.90
5743;DHT22;2896;53.500;10.020;2022-08-03T00:50:05;19.10;99.90
5743;DHT22;2896;53.500;10.020;2022-08-03T00:52:32;19.10;99.90
5743;DHT22;2896;53.500;10.020;2022-08-03T00:54:59;19.00;99.90
5743;DHT22;2896;53.500;10.020;2022-08-03T00:57:27;19.00;99.90
5743;DHT22;2896;53.500;10.020;2022-08-03T00:59:57;18.90;99.90
5743;DHT22;2896;53.500;10.020;2022-08-03T01:02:24;18.90;99.90
5743;DHT22;2896;53.500;10.020;2022-08-03T01:04:51;18.90;99.90
5743;DHT22;2896;53.500;10.020;2022-08-03T01:07:24;18.90;99.90
5743;DHT22;2896;53.500;10.020;2022-08-03T01:10:00;18.80;99.90
5743;DHT22;2896;53.500;10.020;2022-08-03T01:12:34;18.80;99.90
5743;DHT22;2896;53.500;10.020;2022-08-03T01:15:08;18.70;99.90
5743;DHT22;2896;53.500;10.020;2022-08-03T01:17:42;18.70;99.90
5743;DHT22;2896;53.500;10.020;2022-08-03T01:20:12;18.70;99.90
5743;DHT22;2896;53.500;10.020;2022-08-03T01:22:52;18.70;99.90
5743;DHT22;2896;53.500;10.020;2022-08-03T01:25:31;18.60;99.90
5743;DHT22;2896;53.500;10.020;2022-08-03T01:28:14;18.50;99.90
5743;DHT22;2896;53.500;10.020;2022-08-03T01:30:47;18.50;99.90
5743;DHT22;2896;53.500;10.020;2022-08-03T01:33:18;18.40;99.90
5743;DHT22;2896;53.500;10.020;2022-08-03T01:35:47;18.40;99.90
5743;DHT22;2896;53.500;10.020;2022-08-03T01:38:20;18.40;99.90
5743;DHT22;2896;53.500;10.020;2022-08-03T01:40:48;18.40;99.90
5743;DHT22;2896;53.500;10.020;2022-08-03T01:43:18;18.30;99.90
5743;DHT22;2896;53.500;10.020;2022-08-03T01:45:47;18.30;99.90
5743;DHT22;2896;53.500;10.020;2022-08-03T01:48:16;18.30;99.90
5743;DHT22;2896;53.500;10.020;2022-08-03T01:50:44;18.30;99.90
5743;DHT22;2896;53.500;10.020;2022-08-03T01:53:13;18.20;99.90
5743;DHT22;2896;53.500;10.020;2022-08-03T01:55:41;18.20;99.90
5743;DHT22;2896;53.500;10.020;2022-08-03T01:58:09;18.20;99.90
5743;DHT22;2896;53.500;10.020;2022-08-03T02:00:37;18.10;99.90
5743;DHT22;2896;53.500;10.020;2022-08-03T02:03:06;18.10;99.90
5743;DHT22;2896;53.500;10.020;2022-08-03T02:05:34;18.00;99.90
5743;DHT22;2896;53.500;10.020;2022-08-03T02:08:02;18.00;99.90
5743;DHT22;2896;53.500;10.020;2022-08-03T02:10:32;17.90;99.90
5743;DHT22;2896;53.500;10.020;2022-08-03T02:13:00;17.90;99.90
5743;DHT22;2896;53.500;10.020;2022-08-03T02:15:29;17.90;99.90
5743;DHT22;2896;53.500;10.020;2022-08-03T02:17:57;17.80;99.90
5743;DHT22;2896;53.500;10.020;2022-08-03T02:20:27;17.80;99.90
5743;DHT22;2896;53.500;10.020;2022-08-03T02:22:57;17.80;99.90
5743;DHT22;2896;53.500;10.020;2022-08-03T02:25:24;17.80;99.90
5743;DHT22;2896;53.500;10.020;2022-08-03T02:27:55;17.80;99.90
5743;DHT22;2896;53.500;10.020;2022-08-03T02:30:30;17.70;99.90
5743;DHT22;2896;53.500;10.020;2022-08-03T02:32:58;17.70;99.90
5743;DHT22;2896;53.500;10.020;2022-08-03T02:35:28;17.70;99.90
5743;DHT22;2896;53.500;10.020;2022-08-03T02:37:59;17.60;99.90
5743;DHT22;2896;53.500;10.020;2022-08-03T02:40:28;17.60;99.90
5743;DHT22;2896;53.500;10.020;2022-08-03T02:42:59;17.50;99.90
5743;DHT22;2896;53.500;10.020;2022-08-03T02:45:28;17.50;99.90
5743;DHT22;2896;53.500;10.020;2022-08-03T02:47:59;17.50;99.90
5743;DHT22;2896;53.500;10.020;2022-08-03T02:50:30;17.50;99.90
5743;DHT22;2896;53.500;10.020;2022-08-03T02:52:57;17.40;99.90
5743;DHT22;2896;53.500;10.020;2022-08-03T02:55:25;17.40;99.90
5743;DHT22;2896;53.500;10.020;2022-08-03T02:57:53;17.40;99.90
5743;DHT22;2896;53.500;10.020;2022-08-03T03:00:21;17.40;99.90
5743;DHT22;2896;53.500;10.020;2022-08-03T03:02:48;17.30;99.90
5743;DHT22;2896;53.500;10.020;2022-08-03T03:05:16;17.30;99.90
5743;DHT22;2896;53.500;10.020;2022-08-03T03:07:45;17.30;99.90
5743;DHT22;2896;53.500;10.020;2022-08-03T03:10:11;17.30;99.90
5743;DHT22;2896;53.500;10.020;2022-08-03T03:12:40;17.20;99.90
5743;DHT22;2896;53.500;10.020;2022-08-03T03:15:07;17.30;99.90
5743;DHT22;2896;53.500;10.020;2022-08-03T03:17:36;17.30;99.90
5743;DHT22;2896;53.500;10.020;2022-08-03T03:20:06;17.20;1.00
5743;DHT22;2896;53.500;10.020;2022-08-03T03:22:33;17.20;1.00
5743;DHT22;2896;53.500;10.020;2022-08-03T03:25:02;17.20;1.00
5743;DHT22;2896;53.500;10.020;2022-08-03T03:27:29;17.10;1.00
5743;DHT22;2896;53.500;10.020;2022-08-03T03:29:56;17.20;1.00
5743;DHT22;2896;53.500;10.020;2022-08-03T03:32:24;17.10;1.00
5743;DHT22;2896;53.500;10.020;2022-08-03T03:34:51;17.20;1.00
5743;DHT22;2896;53.500;10.020;2022-08-03T03:37:18;17.10;1.00
5743;DHT22;2896;53.500;10.020;2022-08-03T03:39:45;17.10;1.00
5743;DHT22;2896;53.500;10.020;2022-08-03T03:42:13;17.10;1.00
5743;DHT22;2896;53.500;10.020;2022-08-03T03:44:40;17.10;1.00
5743;DHT22;2896;53.500;10.020;2022-08-03T03:47:07;17.10;1.00
5743;DHT22;2896;53.500;10.020;2022-08-03T03:49:33;17.10;1.00
5743;DHT22;2896;53.500;10.020;2022-08-03T03:52:01;17.10;1.00
5743;DHT22;2896;53.500;10.020;2022-08-03T03:54:38;17.10;1.00
5743;DHT22;2896;53.500;10.020;2022-08-03T03:57:05;17.10;1.00
5743;DHT22;2896;53.500;10.020;2022-08-03T03:59:36;17.20;1.00
5743;DHT22;2896;53.500;10.020;2022-08-03T04:02:03;17.10;1.00
5743;DHT22;2896;53.500;10.020;2022-08-03T04:04:30;17.20;1.00
5743;DHT22;2896;53.500;10.020;2022-08-03T04:07:15;17.20;1.00
5743;DHT22;2896;53.500;10.020;2022-08-03T04:10:00;17.20;1.00
5743;DHT22;2896;53.500;10.020;2022-08-03T04:12:46;17.20;1.00
5743;DHT22;2896;53.500;10.020;2022-08-03T04:15:15;17.20;1.00
5743;DHT22;2896;53.500;10.020;2022-08-03T04:17:43;17.30;1.00
5743;DHT22;2896;53.500;10.020;2022-08-03T04:20:12;17.30;1.00
5743;DHT22;2896;53.500;10.020;2022-08-03T04:22:39;17.30;1.00
5743;DHT22;2896;53.500;10.020;2022-08-03T04:25:09;17.30;1.00
5743;DHT22;2896;53.500;10.020;2022-08-03T04:27:39;17.30;1.00
5743;DHT22;2896;53.500;10.020;2022-08-03T04:30:08;17.40;1.00
5743;DHT22;2896;53.500;10.020;2022-08-03T04:32:38;17.40;1.00
5743;DHT22;2896;53.500;10.020;2022-08-03T04:35:06;17.40;1.00
5743;DHT22;2896;53.500;10.020;2022-08-03T04:37:37;17.50;1.00
5743;DHT22;2896;53.500;10.020;2022-08-03T04:40:07;17.50;1.00
5743;DHT22;2896;53.500;10.020;2022-08-03T04:42:36;17.60;1.00
5743;DHT22;2896;53.500;10.020;2022-08-03T04:45:04;17.60;1.00
5743;DHT22;2896;53.500;10.020;2022-08-03T04:47:32;17.60;1.00
5743;DHT22;2896;53.500;10.020;2022-08-03T04:50:01;17.60;1.00
5743;DHT22;2896;53.500;10.020;2022-08-03T04:52:28;17.60;1.00
5743;DHT22;2896;53.500;10.020;2022-08-03T04:54:54;17.70;1.00
5743;DHT22;2896;53.500;10.020;2022-08-03T04:57:21;17.80;1.00
5743;DHT22;2896;53.500;10.020;2022-08-03T04:59:48;17.80;1.00
5743;DHT22;2896;53.500;10.020;2022-08-03T05:02:18;17.90;1.00
5743;DHT22;2896;53.500;10.020;2022-08-03T05:04:45;18.10;1.00
5743;DHT22;2896;53.500;10.020;2022-08-03T05:07:13;18.20;1.00
5743;DHT22;2896;53.500;10.020;2022-08-03T05:09:40;18.30;1.00
5743;DHT22;2896;53.500;10.020;2022-08-03T05:12:08;18.40;1.00
5743;DHT22;2896;53.500;10.020;2022-08-03T05:14:35;18.40;1.00
5743;DHT22;2896;53.500;10.020;2022-08-03T05:17:03;18.50;1.00
5743;DHT22;2896;53.500;10.020;2022-08-03T05:19:30;18.60;1.00
5743;DHT22;2896;53.500;10.020;2022-08-03T05:21:56;21.30;1.00
5743;DHT22;2896;53.500;10.020;2022-08-03T05:24:24;19.00;99.90
5743;DHT22;2896;53.500;10.020;2022-08-03T05:26:52;19.10;99.90
5743;DHT22;2896;53.500;10.020;2022-08-03T05:29:19;19.20;99.90
5743;DHT22;2896;53.500;10.020;2022-08-03T05:31:45;19.20;99.90
5743;DHT22;2896;53.500;10.020;2022-08-03T05:34:12;19.30;99.90
5743;DHT22;2896;53.500;10.020;2022-08-03T05:36:38;19.40;99.90
5743;DHT22;2896;53.500;10.020;2022-08-03T05:39:05;19.40;99.90
5743;DHT22;2896;53.500;10.020;2022-08-03T05:41:33;19.50;99.90
5743;DHT22;2896;53.500;10.020;2022-08-03T05:44:00;19.70;99.90
5743;DHT22;2896;53.500;10.020;2022-08-03T05:46:27;19.70;99.90
5743;DHT22;2896;53.500;10.020;2022-08-03T05:48:53;19.80;99.90
5743;DHT22;2896;53.500;10.020;2022-08-03T05:51:20;20.00;99.90
5743;DHT22;2896;53.500;10.020;2022-08-03T05:53:47;20.10;99.90
5743;DHT22;2896;53.500;10.020;2022-08-03T05:56:13;20.20;99.90
5743;DHT22;2896;53.500;10.020;2022-08-03T05:58:42;22.60;99.90
5743;DHT22;2896;53.500;10.020;2022-08-03T06:01:08;20.30;99.90
5743;DHT22;2896;53.500;10.020;2022-08-03T06:03:35;20.50;99.90
5743;DHT22;2896;53.500;10.020;2022-08-03T06:06:02;22.10;99.90
5743;DHT22;2896;53.500;10.020;2022-08-03T06:08:28;20.50;99.90
5743;DHT22;2896;53.500;10.020;2022-08-03T06:10:55;20.50;99.90
5743;DHT22;2896;53.500;10.020;2022-08-03T06:13:22;20.60;99.90
5743;DHT22;2896;53.500;10.020;2022-08-03T06:15:50;20.80;99.90
5743;DHT22;2896;53.500;10.020;2022-08-03T06:18:17;20.90;99.90
5743;DHT22;2896;53.500;10.020;2022-08-03T06:20:43;21.00;99.90
5743;DHT22;2896;53.500;10.020;2022-08-03T06:23:10;21.20;99.90
5743;DHT22;2896;53.500;10.020;2022-08-03T06:25:37;21.40;99.90
5743;DHT22;2896;53.500;10.020;2022-08-03T06:28:04;21.50;99.90
5743;DHT22;2896;53.500;10.020;2022-08-03T06:30:30;21.80;99.90
5743;DHT22;2896;53.500;10.020;2022-08-03T06:32:58;21.90;99.90
5743;DHT22;2896;53.500;10.020;2022-08-03T06:35:25;22.20;99.90
5743;DHT22;2896;53.500;10.020;2022-08-03T06:37:52;22.50;99.90
5743;DHT22;2896;53.500;10.020;2022-08-03T06:40:20;22.60;99.90
5743;DHT22;2896;53.500;10.020;2022-08-03T06:42:52;22.70;99.90
5743;DHT22;2896;53.500;10.020;2022-08-03T06:45:19;22.90;99.90
5743;DHT22;2896;53.500;10.020;2022-08-03T06:47:46;22.90;99.90
5743;DHT22;2896;53.500;10.020;2022-08-03T06:50:14;23.10;99.90
5743;DHT22;2896;53.500;10.020;2022-08-03T06:52:41;23.20;99.90
5743;DHT22;2896;53.500;10.020;2022-08-03T06:55:07;23.40;99.90
5743;DHT22;2896;53.500;10.020;2022-08-03T06:57:34;23.60;99.90
5743;DHT22;2896;53.500;10.020;2022-08-03T07:00:01;23.80;99.90
5743;DHT22;2896;53.500;10.020;2022-08-03T07:02:28;23.90;99.90
5743;DHT22;2896;53.500;10.020;2022-08-03T07:04:55;24.10;99.90
5743;DHT22;2896;53.500;10.020;2022-08-03T07:07:23;24.30;99.90
5743;DHT22;2896;53.500;10.020;2022-08-03T07:09:50;24.50;99.90
5743;DHT22;2896;53.500;10.020;2022-08-03T07:12:16;24.70;99.90
5743;DHT22;2896;53.500;10.020;2022-08-03T07:14:43;24.70;99.90
5743;DHT22;2896;53.500;10.020;2022-08-03T07:17:10;24.90;99.90
5743;DHT22;2896;53.500;10.020;2022-08-03T07:19:36;24.20;99.90
5743;DHT22;2896;53.500;10.020;2022-08-03T07:22:03;25.10;99.90
5743;DHT22;2896;53.500;10.020;2022-08-03T07:24:31;25.30;99.90
5743;DHT22;2896;53.500;10.020;2022-08-03T07:26:57;25.40;99.90
5743;DHT22;2896;53.500;10.020;2022-08-03T07:29:24;25.60;99.90
5743;DHT22;2896;53.500;10.020;2022-08-03T07:31:51;25.70;99.90
5743;DHT22;2896;53.500;10.020;2022-08-03T07:34:17;25.80;99.90
5743;DHT22;2896;53.500;10.020;2022-08-03T07:36:44;26.00;99.90
5743;DHT22;2896;53.500;10.020;2022-08-03T07:39:11;26.00;99.90
5743;DHT22;2896;53.500;10.020;2022-08-03T07:41:39;26.20;99.90
5743;DHT22;2896;53.500;10.020;2022-08-03T07:44:05;26.30;99.90
5743;DHT22;2896;53.500;10.020;2022-08-03T07:46:32;26.40;99.90
5743;DHT22;2896;53.500;10.020;2022-08-03T07:48:59;26.60;99.90
5743;DHT22;2896;53.500;10.020;2022-08-03T07:51:26;26.80;99.90
5743;DHT22;2896;53.500;10.020;2022-08-03T07:53:52;27.00;99.90
5743;DHT22;2896;53.500;10.020;2022-08-03T07:56:21;27.10;99.90
5743;DHT22;2896;53.500;10.020;2022-08-03T07:58:50;27.30;99.90
5743;DHT22;2896;53.500;10.020;2022-08-03T08:01:18;27.30;99.90
5743;DHT22;2896;53.500;10.020;2022-08-03T08:03:45;27.60;99.90
5743;DHT22;2896;53.500;10.020;2022-08-03T08:06:12;27.70;99.90
5743;DHT22;2896;53.500;10.020;2022-08-03T08:08:39;27.80;99.90
5743;DHT22;2896;53.500;10.020;2022-08-03T08:11:06;27.80;99.90
5743;DHT22;2896;53.500;10.020;2022-08-03T08:13:33;27.80;99.90
5743;DHT22;2896;53.500;10.020;2022-08-03T08:16:01;28.00;99.90
5743;DHT22;2896;53.500;10.020;2022-08-03T08:18:27;28.30;99.90
5743;DHT22;2896;53.500;10.020;2022-08-03T08:20:54;28.40;99.90
5743;DHT22;2896;53.500;10.020;2022-08-03T08:23:21;28.30;99.90
5743;DHT22;2896;53.500;10.020;2022-08-03T08:25:49;28.20;99.90
5743;DHT22;2896;53.500;10.020;2022-08-03T08:28:16;28.40;99.90
5743;DHT22;2896;53.500;10.020;2022-08-03T08:30:43;28.70;99.90
5743;DHT22;2896;53.500;10.020;2022-08-03T08:33:11;28.80;99.90
5743;DHT22;2896;53.500;10.020;2022-08-03T08:35:38;28.80;99.90
5743;DHT22;2896;53.500;10.020;2022-08-03T08:38:05;26.50;99.90
5743;DHT22;2896;53.500;10.020;2022-08-03T08:40:32;28.90;99.90
5743;DHT22;2896;53.500;10.020;2022-08-03T08:42:58;29.10;99.90
5743;DHT22;2896;53.500;10.020;2022-08-03T08:45:25;29.10;99.90
5743;DHT22;2896;53.500;10.020;2022-08-03T08:47:54;29.40;99.90
5743;DHT22;2896;53.500;10.020;2022-08-03T08:50:22;29.70;99.90
5743;DHT22;2896;53.500;10.020;2022-08-03T08:52:51;29.80;99.90
5743;DHT22;2896;53.500;10.020;2022-08-03T08:55:20;30.00;99.90
5743;DHT22;2896;53.500;10.020;2022-08-03T08:57:48;29.80;99.90
5743;DHT22;2896;53.500;10.020;2022-08-03T09:00:16;30.00;99.90
5743;DHT22;2896;53.500;10.020;2022-08-03T09:02:44;30.10;99.90
5743;DHT22;2896;53.500;10.020;2022-08-03T09:05:11;30.10;99.90
5743;DHT22;2896;53.500;10.020;2022-08-03T09:07:40;30.20;99.90
5743;DHT22;2896;53.500;10.020;2022-08-03T09:10:08;30.40;99.90
5743;DHT22;2896;53.500;10.020;2022-08-03T09:12:40;30.70;99.90
5743;DHT22;2896;53.500;10.020;2022-08-03T09:15:18;30.80;99.90
5743;DHT22;2896;53.500;10.020;2022-08-03T09:17:44;30.70;99.90
5743;DHT22;2896;53.500;10.020;2022-08-03T09:20:12;30.80;99.90
5743;DHT22;2896;53.500;10.020;2022-08-03T09:22:52;30.60;99.90
5743;DHT22;2896;53.500;10.020;2022-08-03T09:25:24;30.50;99.90
5743;DHT22;2896;53.500;10.020;2022-08-03T09:27:52;30.60;99.90
5743;DHT22;2896;53.500;10.020;2022-08-03T09:30:18;30.60;99.90
5743;DHT22;2896;53.500;10.020;2022-08-03T09:32:46;30.70;99.90
5743;DHT22;2896;53.500;10.020;2022-08-03T09:35:13;30.70;99.90
5743;DHT22;2896;53.500;10.020;2022-08-03T09:37:40;31.00;99.90
5743;DHT22;2896;53.500;10.020;2022-08-03T09:40:08;30.70;99.90
5743;DHT22;2896;53.500;10.020;2022-08-03T09:42:35;31.10;99.90
5743;DHT22;2896;53.500;10.020;2022-08-03T09:45:04;31.40;99.90
5743;DHT22;2896;53.500;10.020;2022-08-03T09:47:33;31.60;99.90
5743;DHT22;2896;53.500;10.020;2022-08-03T09:50:03;31.40;99.90
5743;DHT22;2896;53.500;10.020;2022-08-03T09:52:32;31.50;99.90
5743;DHT22;2896;53.500;10.020;2022-08-03T09:54:59;31.60;99.90
5743;DHT22;2896;53.500;10.020;2022-08-03T09:57:28;31.60;99.90
5743;DHT22;2896;53.500;10.020;2022-08-03T10:00:06;33.00;99.90
5743;DHT22;2896;53.500;10.020;2022-08-03T10:02:36;31.60;99.90
5743;DHT22;2896;53.500;10.020;2022-08-03T10:05:03;31.80;99.90
5743;DHT22;2896;53.500;10.020;2022-08-03T10:07:41;31.80;99.90
5743;DHT22;2896;53.500;10.020;2022-08-03T10:10:08;31.90;99.90
5743;DHT22;2896;53.500;10.020;2022-08-03T10:12:37;31.90;99.90
5743;DHT22;2896;53.500;10.020;2022-08-03T10:15:05;32.50;99.90
5743;DHT22;2896;53.500;10.020;2022-08-03T10:17:32;32.60;99.90
5743;DHT22;2896;53.500;10.020;2022-08-03T10:19:59;32.80;99.90
5743;DHT22;2896;53.500;10.020;2022-08-03T10:22:27;32.90;99.90
5743;DHT22;2896;53.500;10.020;2022-08-03T10:24:57;33.00;99.90
5743;DHT22;2896;53.500;10.020;2022-08-03T10:27:26;32.60;99.90
5743;DHT22;2896;53.500;10.020;2022-08-03T10:30:00;32.60;99.90
5743;DHT22;2896;53.500;10.020;2022-08-03T10:32:30;32.50;99.90
5743;DHT22;2896;53.500;10.020;2022-08-03T10:35:03;32.90;99.90
5743;DHT22;2896;53.500;10.020;2022-08-03T10:37:33;32.80;99.90
5743;DHT22;2896;53.500;10.020;2022-08-03T10:40:04;32.80;99.90
5743;DHT22;2896;53.500;10.020;2022-08-03T10:42:32;33.00;99.90
5743;DHT22;2896;53.500;10.020;2022-08-03T10:45:05;33.00;99.90
5743;DHT22;2896;53.500;10.020;2022-08-03T10:47:33;33.30;99.90
5743;DHT22;2896;53.500;10.020;2022-08-03T10:50:00;33.40;99.90
5743;DHT22;2896;53.500;10.020;2022-08-03T10:52:27;33.50;99.90
5743;DHT22;2896;53.500;10.020;2022-08-03T10:54:54;33.80;99.90
5743;DHT22;2896;53.500;10.020;2022-08-03T10:57:46;33.90;99.90
5743;DHT22;2896;53.500;10.020;2022-08-03T11:00:15;33.70;99.90
5743;DHT22;2896;53.500;10.020;2022-08-03T11:03:01;34.00;99.90
5743;DHT22;2896;53.500;10.020;2022-08-03T11:05:29;34.00;99.90
5743;DHT22;2896;53.500;10.020;2022-08-03T11:08:25;34.40;99.90
5743;DHT22;2896;53.500;10.020;2022-08-03T11:10:54;34.60;99.90
5743;DHT22;2896;53.500;10.020;2022-08-03T11:13:22;34.20;99.90
5743;DHT22;2896;53.500;10.020;2022-08-03T11:15:53;34.40;99.90
5743;DHT22;2896;53.500;10.020;2022-08-03T11:18:21;34.30;99.90
5743;DHT22;2896;53.500;10.020;2022-08-03T11:20:49;34.20;99.90
5743;DHT22;2896;53.500;10.020;2022-08-03T11:23:18;34.90;99.90
5743;DHT22;2896;53.500;10.020;2022-08-03T11:26:11;34.70;99.90
5743;DHT22;2896;53.500;10.020;2022-08-03T11:28:38;35.00;99.90
5743;DHT22;2896;53.500;10.020;2022-08-03T11:31:44;35.00;99.90
5743;DHT22;2896;53.500;10.020;2022-08-03T11:34:13;35.50;99.90
5743;DHT22;2896;53.500;10.020;2022-08-03T11:37:18;35.30;99.90
5743;DHT22;2896;53.500;10.020;2022-08-03T11:39:47;35.30;99.90
5743;DHT22;2896;53.500;10.020;2022-08-03T11:42:42;35.10;99.90
5743;DHT22;2896;53.500;10.020;2022-08-03T11:45:10;35.60;99.90
5743;DHT22;2896;53.500;10.020;2022-08-03T11:47:39;35.70;99.90
5743;DHT22;2896;53.500;10.020;2022-08-03T11:50:07;35.40;99.90
5743;DHT22;2896;53.500;10.020;2022-08-03T11:52:36;35.80;99.90
5743;DHT22;2896;53.500;10.020;2022-08-03T11:55:11;35.90;99.90
5743;DHT22;2896;53.500;10.020;2022-08-03T11:57:38;35.90;99.90
5743;DHT22;2896;53.500;10.020;2022-08-03T12:00:25;35.90;99.90
5743;DHT22;2896;53.500;10.020;2022-08-03T12:03:03;35.90;99.90
5743;DHT22;2896;53.500;10.020;2022-08-03T12:05:37;35.60;99.90
5743;DHT22;2896;53.500;10.020;2022-08-03T12:08:05;35.40;99.90
5743;DHT22;2896;53.500;10.020;2022-08-03T12:10:32;35.30;99.90
5743;DHT22;2896;53.500;10.020;2022-08-03T12:13:01;35.70;99.90
5743;DHT22;2896;53.500;10.020;2022-08-03T12:15:31;36.00;99.90
5743;DHT22;2896;53.500;10.020;2022-08-03T12:18:00;35.10;99.90
5743;DHT22;2896;53.500;10.020;2022-08-03T12:20:30;35.60;99.90
5743;DHT22;2896;53.500;10.020;2022-08-03T12:23:02;36.00;99.90
5743;DHT22;2896;53.500;10.020;2022-08-03T12:25:30;36.30;99.90
5743;DHT22;2896;53.500;10.020;2022-08-03T12:28:07;36.30;99.90
5743;DHT22;2896;53.500;10.020;2022-08-03T12:30:34;36.50;99.90
5743;DHT22;2896;53.500;10.020;2022-08-03T12:36:05;37.00;99.90
5743;DHT22;2896;53.500;10.020;2022-08-03T12:38:33;37.20;99.90
5743;DHT22;2896;53.500;10.020;2022-08-03T12:41:02;36.70;99.90
5743;DHT22;2896;53.500;10.020;2022-08-03T12:43:30;36.90;99.90
5743;DHT22;2896;53.500;10.020;2022-08-03T12:46:10;37.60;99.90
5743;DHT22;2896;53.500;10.020;2022-08-03T12:49:01;37.40;99.90
5743;DHT22;2896;53.500;10.020;2022-08-03T12:51:29;37.60;99.90
5743;DHT22;2896;53.500;10.020;2022-08-03T12:53:56;37.30;99.90
5743;DHT22;2896;53.500;10.020;2022-08-03T12:56:24;37.40;99.90
5743;DHT22;2896;53.500;10.020;2022-08-03T12:58:51;37.80;99.90
5743;DHT22;2896;53.500;10.020;2022-08-03T13:01:18;37.80;99.90
5743;DHT22;2896;53.500;10.020;2022-08-03T13:03:48;38.10;99.90
5743;DHT22;2896;53.500;10.020;2022-08-03T13:06:18;38.20;99.90
5743;DHT22;2896;53.500;10.020;2022-08-03T13:08:46;38.30;99.90
5743;DHT22;2896;53.500;10.020;2022-08-03T13:11:21;37.80;99.90
5743;DHT22;2896;53.500;10.020;2022-08-03T13:13:48;37.60;99.90
5743;DHT22;2896;53.500;10.020;2022-08-03T13:16:14;37.70;99.90
5743;DHT22;2896;53.500;10.020;2022-08-03T13:18:41;37.30;99.90
5743;DHT22;2896;53.500;10.020;2022-08-03T13:21:07;37.10;99.90
5743;DHT22;2896;53.500;10.020;2022-08-03T13:23:36;37.20;99.90
5743;DHT22;2896;53.500;10.020;2022-08-03T13:26:02;37.80;99.90
5743;DHT22;2896;53.500;10.020;2022-08-03T13:28:29;37.40;99.90
5743;DHT22;2896;53.500;10.020;2022-08-03T13:30:56;37.30;99.90
5743;DHT22;2896;53.500;10.020;2022-08-03T13:33:22;37.10;99.90
5743;DHT22;2896;53.500;10.020;2022-08-03T13:35:49;36.90;99.90
5743;DHT22;2896;53.500;10.020;2022-08-03T13:38:16;36.60;99.90
5743;DHT22;2896;53.500;10.020;2022-08-03T13:40:44;36.90;99.90
5743;DHT22;2896;53.500;10.020;2022-08-03T13:43:10;37.40;99.90
5743;DHT22;2896;53.500;10.020;2022-08-03T13:45:37;37.40;99.90
5743;DHT22;2896;53.500;10.020;2022-08-03T13:48:04;37.20;99.90
5743;DHT22;2896;53.500;10.020;2022-08-03T13:50:32;37.10;99.90
5743;DHT22;2896;53.500;10.020;2022-08-03T13:52:58;36.90;99.90
5743;DHT22;2896;53.500;10.020;2022-08-03T13:55:25;36.70;99.90
5743;DHT22;2896;53.500;10.020;2022-08-03T13:57:53;37.20;99.90
5743;DHT22;2896;53.500;10.020;2022-08-03T14:00:20;37.20;99.90
5743;DHT22;2896;53.500;10.020;2022-08-03T14:02:50;37.50;99.90
5743;DHT22;2896;53.500;10.020;2022-08-03T14:05:16;37.50;99.90
5743;DHT22;2896;53.500;10.020;2022-08-03T14:07:43;37.90;99.90
5743;DHT22;2896;53.500;10.020;2022-08-03T14:10:10;38.30;99.90
5743;DHT22;2896;53.500;10.020;2022-08-03T14:12:37;38.30;99.90
5743;DHT22;2896;53.500;10.020;2022-08-03T14:15:06;37.90;99.90
5743;DHT22;2896;53.500;10.020;2022-08-03T14:17:34;37.10;99.90
5743;DHT22;2896;53.500;10.020;2022-08-03T14:20:01;37.40;99.90
5743;DHT22;2896;53.500;10.020;2022-08-03T14:22:29;37.40;99.90
5743;DHT22;2896;53.500;10.020;2022-08-03T14:24:56;37.90;99.90
5743;DHT22;2896;53.500;10.020;2022-08-03T14:27:23;38.50;99.90
5743;DHT22;2896;53.500;10.020;2022-08-03T14:29:49;38.60;99.90
5743;DHT22;2896;53.500;10.020;2022-08-03T14:32:17;38.20;99.90
5743;DHT22;2896;53.500;10.020;2022-08-03T14:34:44;38.00;99.90
5743;DHT22;2896;53.500;10.020;2022-08-03T14:37:11;37.40;99.90
5743;DHT22;2896;53.500;10.020;2022-08-03T14:39:37;37.10;99.90
5743;DHT22;2896;53.500;10.020;2022-08-03T14:42:04;37.00;99.90
5743;DHT22;2896;53.500;10.020;2022-08-03T14:44:31;36.80;99.90
5743;DHT22;2896;53.500;10.020;2022-08-03T14:46:57;36.50;99.90
5743;DHT22;2896;53.500;10.020;2022-08-03T14:49:25;36.90;99.90
5743;DHT22;2896;53.500;10.020;2022-08-03T14:51:52;37.30;99.90
5743;DHT22;2896;53.500;10.020;2022-08-03T14:54:19;37.20;99.90
5743;DHT22;2896;53.500;10.020;2022-08-03T14:56:45;37.40;99.90
5743;DHT22;2896;53.500;10.020;2022-08-03T14:59:12;37.40;99.90
5743;DHT22;2896;53.500;10.020;2022-08-03T15:01:39;36.00;99.90
5743;DHT22;2896;53.500;10.020;2022-08-03T15:04:05;37.30;99.90
5743;DHT22;2896;53.500;10.020;2022-08-03T15:06:33;37.70;99.90
5743;DHT22;2896;53.500;10.020;2022-08-03T15:09:00;37.90;99.90
5743;DHT22;2896;53.500;10.020;2022-08-03T15:11:26;37.80;99.90
5743;DHT22;2896;53.500;10.020;2022-08-03T15:13:53;37.40;99.90
5743;DHT22;2896;53.500;10.020;2022-08-03T15:16:20;37.20;99.90
5743;DHT22;2896;53.500;10.020;2022-08-03T15:18:46;36.80;99.90
5743;DHT22;2896;53.500;10.020;2022-08-03T15:21:13;37.30;99.90
5743;DHT22;2896;53.500;10.020;2022-08-03T15:23:41;37.50;99.90
5743;DHT22;2896;53.500;10.020;2022-08-03T15:26:07;37.50;99.90
5743;DHT22;2896;53.500;10.020;2022-08-03T15:28:34;37.30;99.90
5743;DHT22;2896;53.500;10.020;2022-08-03T15:31:01;37.40;99.90
5743;DHT22;2896;53.500;10.020;2022-08-03T15:33:28;37.50;99.90
5743;DHT22;2896;53.500;10.020;2022-08-03T15:35:55;37.60;99.90
5743;DHT22;2896;53.500;10.020;2022-08-03T15:38:22;37.90;99.90
5743;DHT22;2896;53.500;10.020;2022-08-03T15:40:50;37.30;99.90
5743;DHT22;2896;53.500;10.020;2022-08-03T15:43:18;37.40;99.90
5743;DHT22;2896;53.500;10.020;2022-08-03T15:45:45;37.30;99.90
5743;DHT22;2896;53.500;10.020;2022-08-03T15:48:12;36.90;99.90
5743;DHT22;2896;53.500;10.020;2022-08-03T15:50:39;36.50;99.90
5743;DHT22;2896;53.500;10.020;2022-08-03T15:53:05;35.90;99.90
5743;DHT22;2896;53.500;10.020;2022-08-03T15:55:32;35.40;99.90
5743;DHT22;2896;53.500;10.020;2022-08-03T15:58:00;35.20;99.90
5743;DHT22;2896;53.500;10.020;2022-08-03T16:00:26;34.90;99.90